Terminal Aerodrome Forecast
Issued by NWS Tampa Bay Area, FL

Home | Current Version | Previous Version | Text Only | Print | Product List | Glossary On
Versions: 1 2 3 4 5 6 7 8 9 10 11 12 13 14 15 16 17 18 19 20
000
FTUS42 KTBW 230900 AAC
TAFFMY
TAF AMD
KFMY 230907Z 2309/2406 08006KT P6SM VCSH SCT004 BKN110 BKN250
      TEMPO 2309/2312 BKN003
     FM231400 20006KT P6SM VCSH SCT020 BKN060
     FM231700 25007KT P6SM VCTS SCT020CB BKN040 BKN120
     FM240100 VRB04KT P6SM VCSH FEW020 BKN100=

USA.gov is the U.S. government's official web portal to all federal, state and local government web resources and services.